ESSB/BMA METAR and TAF weather

Enter ICAO airport designator
Station Type Date Time Source
ESSB METAR 2019/08/24 20:50 UTC NOAA

ESSB 242050Z AUTO 14003KT 9999 NCD 16/15 Q1027


Station Type Date Time Source
ESSB Decoded METAR 2019/08/24 20:50 UTC NOAA

Station name not available
Aug 24, 2019 - 04:50 PM EDT / 2019.08.24 2050 UTC
Wind: from the SE (140 degrees) at 3 MPH (3 KT):0
Visibility: greater than 7 mile(s):0
Temperature: 60 F (16 C)
Dew Point: 59 F (15 C)
Relative Humidity: 93%
Pressure (altimeter): 30.33 in. Hg (1027 hPa)
ob: ESSB 242050Z AUTO 14003KT 9999 NCD 16/15 Q1027
cycle: 21

Station Type Date Time Source
ESSB TAF 2017/03/27 06:35 UTC NOAA

TAF ESSB 270530Z 2706/2724 27008KT CAVOK
BECMG 2710/2713 29015G25KT

Example: see airport list